sensor_id;sensor_type;location;lat;lon;timestamp;P1;durP1;ratioP1;P2;durP2;ratioP2
10416;SDS011;62605;49.432;8.680;2023-04-21T00:01:30;5.23;;;3.50;;
10416;SDS011;62605;49.432;8.680;2023-04-21T00:03:58;5.10;;;3.50;;
10416;SDS011;62605;49.432;8.680;2023-04-21T00:06:26;4.87;;;3.53;;
10416;SDS011;62605;49.432;8.680;2023-04-21T00:08:55;5.17;;;2.97;;
10416;SDS011;62605;49.432;8.680;2023-04-21T00:11:23;5.33;;;3.13;;
10416;SDS011;62605;49.432;8.680;2023-04-21T00:13:50;5.90;;;3.73;;
10416;SDS011;62605;49.432;8.680;2023-04-21T00:16:18;4.23;;;3.50;;
10416;SDS011;62605;49.432;8.680;2023-04-21T00:18:49;5.33;;;4.00;;
10416;SDS011;62605;49.432;8.680;2023-04-21T00:21:20;5.23;;;3.70;;
10416;SDS011;62605;49.432;8.680;2023-04-21T00:24:14;5.73;;;3.53;;
10416;SDS011;62605;49.432;8.680;2023-04-21T00:26:44;3.83;;;3.20;;
10416;SDS011;62605;49.432;8.680;2023-04-21T00:32:32;4.57;;;3.40;;
10416;SDS011;62605;49.432;8.680;2023-04-21T00:35:01;5.97;;;3.70;;
10416;SDS011;62605;49.432;8.680;2023-04-21T00:37:32;5.10;;;3.37;;
10416;SDS011;62605;49.432;8.680;2023-04-21T00:40:02;4.67;;;3.40;;
10416;SDS011;62605;49.432;8.680;2023-04-21T00:42:35;6.27;;;4.03;;
10416;SDS011;62605;49.432;8.680;2023-04-21T00:45:03;8.37;;;3.80;;
10416;SDS011;62605;49.432;8.680;2023-04-21T00:47:32;4.93;;;3.90;;
10416;SDS011;62605;49.432;8.680;2023-04-21T00:50:01;5.37;;;3.70;;
10416;SDS011;62605;49.432;8.680;2023-04-21T00:52:29;6.10;;;4.70;;
10416;SDS011;62605;49.432;8.680;2023-04-21T00:54:56;5.03;;;3.70;;
10416;SDS011;62605;49.432;8.680;2023-04-21T00:57:25;7.23;;;4.00;;
10416;SDS011;62605;49.432;8.680;2023-04-21T00:59:54;4.47;;;3.40;;
10416;SDS011;62605;49.432;8.680;2023-04-21T01:02:30;7.07;;;4.20;;
10416;SDS011;62605;49.432;8.680;2023-04-21T01:08:06;6.20;;;4.30;;
10416;SDS011;62605;49.432;8.680;2023-04-21T01:10:37;5.97;;;4.00;;
10416;SDS011;62605;49.432;8.680;2023-04-21T01:13:05;8.13;;;3.50;;
10416;SDS011;62605;49.432;8.680;2023-04-21T01:15:49;6.67;;;3.97;;
10416;SDS011;62605;49.432;8.680;2023-04-21T01:18:25;6.73;;;3.93;;
10416;SDS011;62605;49.432;8.680;2023-04-21T01:29:44;7.43;;;4.30;;
10416;SDS011;62605;49.432;8.680;2023-04-21T01:32:14;6.50;;;4.00;;
10416;SDS011;62605;49.432;8.680;2023-04-21T01:34:44;5.23;;;3.83;;
10416;SDS011;62605;49.432;8.680;2023-04-21T01:37:30;6.17;;;4.20;;
10416;SDS011;62605;49.432;8.680;2023-04-21T01:40:10;6.33;;;4.20;;
10416;SDS011;62605;49.432;8.680;2023-04-21T01:42:39;7.50;;;4.70;;
10416;SDS011;62605;49.432;8.680;2023-04-21T01:45:15;6.73;;;4.27;;
10416;SDS011;62605;49.432;8.680;2023-04-21T01:47:43;8.13;;;4.27;;
10416;SDS011;62605;49.432;8.680;2023-04-21T01:50:16;6.17;;;4.20;;
10416;SDS011;62605;49.432;8.680;2023-04-21T01:52:45;8.07;;;4.83;;
10416;SDS011;62605;49.432;8.680;2023-04-21T01:55:16;6.53;;;4.13;;
10416;SDS011;62605;49.432;8.680;2023-04-21T01:57:47;6.63;;;4.43;;
10416;SDS011;62605;49.432;8.680;2023-04-21T02:00:15;6.47;;;4.47;;
10416;SDS011;62605;49.432;8.680;2023-04-21T02:02:43;5.97;;;3.53;;
10416;SDS011;62605;49.432;8.680;2023-04-21T02:05:10;6.90;;;4.50;;
10416;SDS011;62605;49.432;8.680;2023-04-21T02:07:42;5.03;;;3.60;;
10416;SDS011;62605;49.432;8.680;2023-04-21T02:10:11;6.53;;;4.03;;
10416;SDS011;62605;49.432;8.680;2023-04-21T02:12:39;5.63;;;3.77;;
10416;SDS011;62605;49.432;8.680;2023-04-21T02:15:07;8.17;;;4.63;;
10416;SDS011;62605;49.432;8.680;2023-04-21T02:17:35;5.77;;;4.03;;
10416;SDS011;62605;49.432;8.680;2023-04-21T02:20:09;6.03;;;4.50;;
10416;SDS011;62605;49.432;8.680;2023-04-21T02:22:37;6.53;;;4.03;;
10416;SDS011;62605;49.432;8.680;2023-04-21T02:25:06;5.30;;;4.03;;
10416;SDS011;62605;49.432;8.680;2023-04-21T02:27:36;7.40;;;3.90;;
10416;SDS011;62605;49.432;8.680;2023-04-21T02:30:03;4.90;;;3.70;;
10416;SDS011;62605;49.432;8.680;2023-04-21T02:32:31;4.83;;;3.37;;
10416;SDS011;62605;49.432;8.680;2023-04-21T02:34:58;6.17;;;3.97;;
10416;SDS011;62605;49.432;8.680;2023-04-21T02:37:26;5.10;;;3.80;;
10416;SDS011;62605;49.432;8.680;2023-04-21T02:39:53;5.30;;;3.60;;
10416;SDS011;62605;49.432;8.680;2023-04-21T02:42:20;5.33;;;3.23;;
10416;SDS011;62605;49.432;8.680;2023-04-21T02:44:50;5.07;;;3.17;;
10416;SDS011;62605;49.432;8.680;2023-04-21T02:47:17;4.33;;;3.30;;
10416;SDS011;62605;49.432;8.680;2023-04-21T02:49:45;6.53;;;3.47;;
10416;SDS011;62605;49.432;8.680;2023-04-21T02:52:12;4.70;;;3.40;;
10416;SDS011;62605;49.432;8.680;2023-04-21T02:54:40;5.90;;;3.43;;
10416;SDS011;62605;49.432;8.680;2023-04-21T02:57:07;5.53;;;3.30;;
10416;SDS011;62605;49.432;8.680;2023-04-21T02:59:34;6.43;;;3.50;;
10416;SDS011;62605;49.432;8.680;2023-04-21T03:02:05;5.40;;;3.13;;
10416;SDS011;62605;49.432;8.680;2023-04-21T03:04:32;2.93;;;2.63;;
10416;SDS011;62605;49.432;8.680;2023-04-21T03:07:00;6.47;;;3.70;;
10416;SDS011;62605;49.432;8.680;2023-04-21T03:09:28;5.57;;;3.70;;
10416;SDS011;62605;49.432;8.680;2023-04-21T03:11:55;5.43;;;3.67;;
10416;SDS011;62605;49.432;8.680;2023-04-21T03:14:23;6.40;;;3.87;;
10416;SDS011;62605;49.432;8.680;2023-04-21T03:16:51;5.07;;;4.10;;
10416;SDS011;62605;49.432;8.680;2023-04-21T03:19:20;6.13;;;4.43;;
10416;SDS011;62605;49.432;8.680;2023-04-21T03:22:01;6.03;;;3.93;;
10416;SDS011;62605;49.432;8.680;2023-04-21T03:24:29;6.37;;;4.57;;
10416;SDS011;62605;49.432;8.680;2023-04-21T03:26:56;7.40;;;4.10;;
10416;SDS011;62605;49.432;8.680;2023-04-21T03:29:25;7.00;;;4.80;;
10416;SDS011;62605;49.432;8.680;2023-04-21T03:31:52;8.53;;;5.53;;
10416;SDS011;62605;49.432;8.680;2023-04-21T03:34:22;6.57;;;4.73;;
10416;SDS011;62605;49.432;8.680;2023-04-21T03:36:50;9.03;;;4.70;;
10416;SDS011;62605;49.432;8.680;2023-04-21T03:39:17;7.13;;;4.40;;
10416;SDS011;62605;49.432;8.680;2023-04-21T03:41:44;10.23;;;5.13;;
10416;SDS011;62605;49.432;8.680;2023-04-21T03:44:12;11.67;;;5.43;;
10416;SDS011;62605;49.432;8.680;2023-04-21T03:46:40;8.37;;;4.00;;
10416;SDS011;62605;49.432;8.680;2023-04-21T03:49:08;9.60;;;4.70;;
10416;SDS011;62605;49.432;8.680;2023-04-21T03:51:37;8.60;;;4.50;;
10416;SDS011;62605;49.432;8.680;2023-04-21T03:54:05;8.73;;;4.53;;
10416;SDS011;62605;49.432;8.680;2023-04-21T03:56:34;8.27;;;4.63;;
10416;SDS011;62605;49.432;8.680;2023-04-21T03:59:01;7.50;;;4.50;;
10416;SDS011;62605;49.432;8.680;2023-04-21T04:01:29;5.97;;;4.07;;
10416;SDS011;62605;49.432;8.680;2023-04-21T04:03:57;5.57;;;3.33;;
10416;SDS011;62605;49.432;8.680;2023-04-21T04:06:27;5.10;;;3.33;;
10416;SDS011;62605;49.432;8.680;2023-04-21T04:09:01;4.67;;;3.63;;
10416;SDS011;62605;49.432;8.680;2023-04-21T04:11:30;4.03;;;2.53;;
10416;SDS011;62605;49.432;8.680;2023-04-21T04:13:58;7.80;;;3.83;;
10416;SDS011;62605;49.432;8.680;2023-04-21T04:16:25;6.73;;;4.33;;
10416;SDS011;62605;49.432;8.680;2023-04-21T04:18:53;6.13;;;3.77;;
10416;SDS011;62605;49.432;8.680;2023-04-21T04:21:34;6.33;;;4.50;;
10416;SDS011;62605;49.432;8.680;2023-04-21T04:24:33;5.97;;;4.23;;
10416;SDS011;62605;49.432;8.680;2023-04-21T04:27:01;6.43;;;4.50;;
10416;SDS011;62605;49.432;8.680;2023-04-21T04:29:28;5.60;;;3.97;;
10416;SDS011;62605;49.432;8.680;2023-04-21T04:31:56;7.87;;;4.40;;
10416;SDS011;62605;49.432;8.680;2023-04-21T04:34:25;7.80;;;4.10;;
10416;SDS011;62605;49.432;8.680;2023-04-21T04:36:53;5.60;;;3.80;;
10416;SDS011;62605;49.432;8.680;2023-04-21T04:39:39;9.90;;;5.20;;
10416;SDS011;62605;49.432;8.680;2023-04-21T04:42:09;7.30;;;4.13;;
10416;SDS011;62605;49.432;8.680;2023-04-21T04:44:38;6.47;;;4.03;;
10416;SDS011;62605;49.432;8.680;2023-04-21T04:47:11;7.57;;;4.13;;
10416;SDS011;62605;49.432;8.680;2023-04-21T04:49:39;5.60;;;3.83;;
10416;SDS011;62605;49.432;8.680;2023-04-21T04:52:15;5.90;;;4.17;;
10416;SDS011;62605;49.432;8.680;2023-04-21T04:54:52;5.57;;;3.90;;
10416;SDS011;62605;49.432;8.680;2023-04-21T04:57:34;5.43;;;3.90;;
10416;SDS011;62605;49.432;8.680;2023-04-21T05:00:03;7.67;;;4.40;;
10416;SDS011;62605;49.432;8.680;2023-04-21T05:02:45;7.50;;;5.03;;
10416;SDS011;62605;49.432;8.680;2023-04-21T05:05:26;7.47;;;5.17;;
10416;SDS011;62605;49.432;8.680;2023-04-21T05:08:07;7.27;;;4.77;;
10416;SDS011;62605;49.432;8.680;2023-04-21T05:10:48;5.17;;;4.00;;
10416;SDS011;62605;49.432;8.680;2023-04-21T05:13:30;4.47;;;3.73;;
10416;SDS011;62605;49.432;8.680;2023-04-21T05:16:04;6.27;;;3.90;;
10416;SDS011;62605;49.432;8.680;2023-04-21T05:18:44;7.10;;;4.50;;
10416;SDS011;62605;49.432;8.680;2023-04-21T05:21:26;6.57;;;4.37;;
10416;SDS011;62605;49.432;8.680;2023-04-21T05:24:06;6.13;;;4.30;;
10416;SDS011;62605;49.432;8.680;2023-04-21T05:36:13;5.53;;;3.97;;
10416;SDS011;62605;49.432;8.680;2023-04-21T05:38:41;6.07;;;4.13;;
10416;SDS011;62605;49.432;8.680;2023-04-21T05:41:12;5.83;;;4.33;;
10416;SDS011;62605;49.432;8.680;2023-04-21T05:43:47;6.07;;;4.10;;
10416;SDS011;62605;49.432;8.680;2023-04-21T05:46:29;6.73;;;4.23;;
10416;SDS011;62605;49.432;8.680;2023-04-21T06:08:06;6.37;;;4.40;;
10416;SDS011;62605;49.432;8.680;2023-04-21T06:10:51;6.47;;;4.47;;
10416;SDS011;62605;49.432;8.680;2023-04-21T06:13:22;7.57;;;4.83;;
10416;SDS011;62605;49.432;8.680;2023-04-21T06:15:51;9.87;;;4.10;;
10416;SDS011;62605;49.432;8.680;2023-04-21T06:18:18;7.77;;;4.40;;
10416;SDS011;62605;49.432;8.680;2023-04-21T06:20:50;8.33;;;4.13;;
10416;SDS011;62605;49.432;8.680;2023-04-21T06:23:17;4.30;;;3.90;;
10416;SDS011;62605;49.432;8.680;2023-04-21T06:25:45;5.87;;;4.37;;
10416;SDS011;62605;49.432;8.680;2023-04-21T06:28:12;7.50;;;4.40;;
10416;SDS011;62605;49.432;8.680;2023-04-21T06:30:39;6.47;;;3.70;;
10416;SDS011;62605;49.432;8.680;2023-04-21T06:33:08;7.50;;;4.60;;
10416;SDS011;62605;49.432;8.680;2023-04-21T06:35:35;7.33;;;4.63;;
10416;SDS011;62605;49.432;8.680;2023-04-21T06:38:04;6.70;;;3.70;;
10416;SDS011;62605;49.432;8.680;2023-04-21T06:40:33;6.50;;;4.17;;
10416;SDS011;62605;49.432;8.680;2023-04-21T06:43:00;5.77;;;4.23;;
10416;SDS011;62605;49.432;8.680;2023-04-21T06:45:27;7.70;;;4.80;;
10416;SDS011;62605;49.432;8.680;2023-04-21T06:47:54;6.23;;;5.10;;
10416;SDS011;62605;49.432;8.680;2023-04-21T06:50:21;6.00;;;4.30;;
10416;SDS011;62605;49.432;8.680;2023-04-21T06:52:48;7.87;;;4.37;;
10416;SDS011;62605;49.432;8.680;2023-04-21T06:55:17;9.53;;;5.47;;
10416;SDS011;62605;49.432;8.680;2023-04-21T06:57:44;6.53;;;4.93;;
10416;SDS011;62605;49.432;8.680;2023-04-21T07:00:12;4.83;;;4.27;;
10416;SDS011;62605;49.432;8.680;2023-04-21T07:02:39;8.57;;;4.50;;
10416;SDS011;62605;49.432;8.680;2023-04-21T07:05:07;6.17;;;4.07;;
10416;SDS011;62605;49.432;8.680;2023-04-21T07:07:34;7.03;;;4.20;;
10416;SDS011;62605;49.432;8.680;2023-04-21T07:10:01;7.33;;;4.60;;
10416;SDS011;62605;49.432;8.680;2023-04-21T07:12:30;6.77;;;4.47;;
10416;SDS011;62605;49.432;8.680;2023-04-21T07:14:57;6.70;;;4.50;;
10416;SDS011;62605;49.432;8.680;2023-04-21T07:17:24;8.03;;;4.67;;
10416;SDS011;62605;49.432;8.680;2023-04-21T07:19:52;9.03;;;4.63;;
10416;SDS011;62605;49.432;8.680;2023-04-21T07:22:19;6.93;;;4.60;;
10416;SDS011;62605;49.432;8.680;2023-04-21T07:24:47;6.70;;;4.47;;
10416;SDS011;62605;49.432;8.680;2023-04-21T07:27:15;6.70;;;4.30;;
10416;SDS011;62605;49.432;8.680;2023-04-21T07:29:45;6.77;;;4.63;;
10416;SDS011;62605;49.432;8.680;2023-04-21T07:32:12;5.83;;;4.27;;
10416;SDS011;62605;49.432;8.680;2023-04-21T07:34:40;6.50;;;4.63;;
10416;SDS011;62605;49.432;8.680;2023-04-21T07:37:10;6.07;;;4.47;;
10416;SDS011;62605;49.432;8.680;2023-04-21T07:39:38;7.73;;;5.27;;
10416;SDS011;62605;49.432;8.680;2023-04-21T07:42:05;6.23;;;4.43;;
10416;SDS011;62605;49.432;8.680;2023-04-21T07:44:35;5.93;;;4.40;;
10416;SDS011;62605;49.432;8.680;2023-04-21T07:47:04;8.20;;;5.00;;
10416;SDS011;62605;49.432;8.680;2023-04-21T07:49:31;9.10;;;5.13;;
10416;SDS011;62605;49.432;8.680;2023-04-21T07:51:58;8.53;;;5.13;;
10416;SDS011;62605;49.432;8.680;2023-04-21T07:54:25;9.50;;;5.00;;
10416;SDS011;62605;49.432;8.680;2023-04-21T07:56:52;6.83;;;4.73;;
10416;SDS011;62605;49.432;8.680;2023-04-21T07:59:20;5.90;;;4.33;;
10416;SDS011;62605;49.432;8.680;2023-04-21T08:01:47;8.67;;;4.57;;
10416;SDS011;62605;49.432;8.680;2023-04-21T08:04:17;8.20;;;5.20;;
10416;SDS011;62605;49.432;8.680;2023-04-21T08:06:45;7.83;;;4.97;;
10416;SDS011;62605;49.432;8.680;2023-04-21T08:09:12;7.47;;;4.93;;
10416;SDS011;62605;49.432;8.680;2023-04-21T08:11:39;7.67;;;4.90;;
10416;SDS011;62605;49.432;8.680;2023-04-21T08:17:28;10.20;;;4.93;;
10416;SDS011;62605;49.432;8.680;2023-04-21T08:19:57;7.20;;;5.10;;
10416;SDS011;62605;49.432;8.680;2023-04-21T08:22:25;9.27;;;4.73;;
10416;SDS011;62605;49.432;8.680;2023-04-21T08:24:52;7.03;;;5.50;;
10416;SDS011;62605;49.432;8.680;2023-04-21T08:27:19;8.23;;;4.97;;
10416;SDS011;62605;49.432;8.680;2023-04-21T08:29:47;8.27;;;5.40;;
10416;SDS011;62605;49.432;8.680;2023-04-21T08:32:15;8.00;;;5.33;;
10416;SDS011;62605;49.432;8.680;2023-04-21T08:34:47;7.90;;;5.43;;
10416;SDS011;62605;49.432;8.680;2023-04-21T08:37:17;8.17;;;6.27;;
10416;SDS011;62605;49.432;8.680;2023-04-21T08:39:44;6.10;;;4.23;;
10416;SDS011;62605;49.432;8.680;2023-04-21T08:42:12;7.23;;;5.00;;
10416;SDS011;62605;49.432;8.680;2023-04-21T08:44:40;5.50;;;4.47;;
10416;SDS011;62605;49.432;8.680;2023-04-21T08:47:07;4.97;;;4.43;;
10416;SDS011;62605;49.432;8.680;2023-04-21T08:49:37;10.17;;;5.67;;
10416;SDS011;62605;49.432;8.680;2023-04-21T08:52:05;7.17;;;5.27;;
10416;SDS011;62605;49.432;8.680;2023-04-21T08:54:33;8.93;;;5.07;;
10416;SDS011;62605;49.432;8.680;2023-04-21T08:57:01;9.27;;;5.67;;
10416;SDS011;62605;49.432;8.680;2023-04-21T08:59:28;7.47;;;5.30;;
10416;SDS011;62605;49.432;8.680;2023-04-21T09:02:06;7.97;;;4.97;;
10416;SDS011;62605;49.432;8.680;2023-04-21T09:04:34;7.90;;;4.87;;
10416;SDS011;62605;49.432;8.680;2023-04-21T09:07:04;7.13;;;5.13;;
10416;SDS011;62605;49.432;8.680;2023-04-21T09:09:34;7.30;;;5.03;;
10416;SDS011;62605;49.432;8.680;2023-04-21T09:12:17;7.13;;;4.90;;
10416;SDS011;62605;49.432;8.680;2023-04-21T09:14:44;7.33;;;5.00;;
10416;SDS011;62605;49.432;8.680;2023-04-21T09:17:13;7.20;;;4.97;;
10416;SDS011;62605;49.432;8.680;2023-04-21T09:19:41;7.10;;;4.23;;
10416;SDS011;62605;49.432;8.680;2023-04-21T09:22:08;7.33;;;5.13;;
10416;SDS011;62605;49.432;8.680;2023-04-21T09:24:44;6.87;;;4.77;;
10416;SDS011;62605;49.432;8.680;2023-04-21T09:27:12;7.37;;;4.57;;
10416;SDS011;62605;49.432;8.680;2023-04-21T09:29:44;7.90;;;4.83;;
10416;SDS011;62605;49.432;8.680;2023-04-21T09:32:16;7.63;;;4.70;;
10416;SDS011;62605;49.432;8.680;2023-04-21T09:34:44;6.63;;;4.73;;
10416;SDS011;62605;49.432;8.680;2023-04-21T09:37:12;5.03;;;4.13;;
10416;SDS011;62605;49.432;8.680;2023-04-21T09:39:45;5.97;;;4.57;;
10416;SDS011;62605;49.432;8.680;2023-04-21T09:42:12;5.87;;;4.20;;
10416;SDS011;62605;49.432;8.680;2023-04-21T09:44:39;6.03;;;4.60;;
10416;SDS011;62605;49.432;8.680;2023-04-21T09:47:08;6.93;;;4.77;;
10416;SDS011;62605;49.432;8.680;2023-04-21T09:49:37;5.40;;;4.40;;
10416;SDS011;62605;49.432;8.680;2023-04-21T09:52:08;5.90;;;4.80;;
10416;SDS011;62605;49.432;8.680;2023-04-21T09:54:39;6.70;;;5.10;;
10416;SDS011;62605;49.432;8.680;2023-04-21T09:57:12;7.93;;;5.20;;
10416;SDS011;62605;49.432;8.680;2023-04-21T09:59:46;7.47;;;4.93;;
10416;SDS011;62605;49.432;8.680;2023-04-21T10:02:20;6.30;;;4.57;;
10416;SDS011;62605;49.432;8.680;2023-04-21T10:04:51;6.07;;;4.77;;
10416;SDS011;62605;49.432;8.680;2023-04-21T10:07:18;7.30;;;4.73;;
10416;SDS011;62605;49.432;8.680;2023-04-21T10:09:46;5.60;;;4.00;;
10416;SDS011;62605;49.432;8.680;2023-04-21T10:12:19;4.70;;;4.03;;
10416;SDS011;62605;49.432;8.680;2023-04-21T10:14:49;6.40;;;4.57;;
10416;SDS011;62605;49.432;8.680;2023-04-21T10:17:16;5.47;;;4.27;;
10416;SDS011;62605;49.432;8.680;2023-04-21T10:19:48;6.33;;;4.57;;
10416;SDS011;62605;49.432;8.680;2023-04-21T10:22:24;7.73;;;4.90;;
10416;SDS011;62605;49.432;8.680;2023-04-21T10:24:53;4.77;;;3.90;;
10416;SDS011;62605;49.432;8.680;2023-04-21T10:27:33;7.40;;;4.87;;
10416;SDS011;62605;49.432;8.680;2023-04-21T10:30:16;7.60;;;4.97;;
10416;SDS011;62605;49.432;8.680;2023-04-21T10:32:45;7.77;;;4.37;;
10416;SDS011;62605;49.432;8.680;2023-04-21T10:35:12;8.80;;;5.82;;
10416;SDS011;62605;49.432;8.680;2023-04-21T10:37:41;6.40;;;4.67;;
10416;SDS011;62605;49.432;8.680;2023-04-21T10:43:14;5.25;;;4.63;;
10416;SDS011;62605;49.432;8.680;2023-04-21T10:49:03;5.78;;;4.18;;
10416;SDS011;62605;49.432;8.680;2023-04-21T10:51:30;6.60;;;4.28;;
10416;SDS011;62605;49.432;8.680;2023-04-21T10:53:58;5.55;;;4.10;;
10416;SDS011;62605;49.432;8.680;2023-04-21T10:56:25;5.68;;;4.20;;
10416;SDS011;62605;49.432;8.680;2023-04-21T10:58:55;5.47;;;4.30;;
10416;SDS011;62605;49.432;8.680;2023-04-21T11:01:24;5.75;;;4.18;;
10416;SDS011;62605;49.432;8.680;2023-04-21T11:03:51;5.95;;;4.43;;
10416;SDS011;62605;49.432;8.680;2023-04-21T11:06:20;7.18;;;4.90;;
10416;SDS011;62605;49.432;8.680;2023-04-21T11:08:54;5.80;;;4.28;;
10416;SDS011;62605;49.432;8.680;2023-04-21T11:11:21;6.45;;;4.95;;
10416;SDS011;62605;49.432;8.680;2023-04-21T11:13:51;8.68;;;5.00;;
10416;SDS011;62605;49.432;8.680;2023-04-21T11:16:20;6.18;;;4.55;;
10416;SDS011;62605;49.432;8.680;2023-04-21T11:18:47;7.32;;;4.75;;
10416;SDS011;62605;49.432;8.680;2023-04-21T11:21:15;7.13;;;5.05;;
10416;SDS011;62605;49.432;8.680;2023-04-21T11:23:49;7.13;;;4.63;;
10416;SDS011;62605;49.432;8.680;2023-04-21T11:26:18;7.15;;;5.03;;
10416;SDS011;62605;49.432;8.680;2023-04-21T11:28:54;5.28;;;4.07;;
10416;SDS011;62605;49.432;8.680;2023-04-21T11:31:29;6.90;;;4.82;;
10416;SDS011;62605;49.432;8.680;2023-04-21T11:34:00;7.60;;;4.38;;
10416;SDS011;62605;49.432;8.680;2023-04-21T11:36:31;5.65;;;4.10;;
10416;SDS011;62605;49.432;8.680;2023-04-21T11:38:58;7.80;;;4.70;;
10416;SDS011;62605;49.432;8.680;2023-04-21T11:41:28;6.88;;;4.65;;
10416;SDS011;62605;49.432;8.680;2023-04-21T11:43:56;6.45;;;4.80;;
10416;SDS011;62605;49.432;8.680;2023-04-21T11:46:23;7.05;;;4.88;;
10416;SDS011;62605;49.432;8.680;2023-04-21T11:49:00;5.60;;;3.88;;
10416;SDS011;62605;49.432;8.680;2023-04-21T11:51:32;4.85;;;3.83;;
10416;SDS011;62605;49.432;8.680;2023-04-21T11:53:59;5.07;;;3.92;;
10416;SDS011;62605;49.432;8.680;2023-04-21T11:56:27;5.47;;;4.00;;
10416;SDS011;62605;49.432;8.680;2023-04-21T11:58:54;5.68;;;3.72;;
10416;SDS011;62605;49.432;8.680;2023-04-21T12:01:21;6.35;;;4.28;;
10416;SDS011;62605;49.432;8.680;2023-04-21T12:03:49;5.30;;;3.70;;
10416;SDS011;62605;49.432;8.680;2023-04-21T12:06:22;6.18;;;4.13;;
10416;SDS011;62605;49.432;8.680;2023-04-21T12:08:54;5.47;;;3.97;;
10416;SDS011;62605;49.432;8.680;2023-04-21T12:11:23;5.80;;;4.57;;
10416;SDS011;62605;49.432;8.680;2023-04-21T12:13:52;6.13;;;4.10;;
10416;SDS011;62605;49.432;8.680;2023-04-21T12:16:18;5.65;;;4.13;;
10416;SDS011;62605;49.432;8.680;2023-04-21T12:18:46;5.32;;;4.10;;
10416;SDS011;62605;49.432;8.680;2023-04-21T12:21:14;5.15;;;3.97;;
10416;SDS011;62605;49.432;8.680;2023-04-21T12:23:43;5.88;;;4.25;;
10416;SDS011;62605;49.432;8.680;2023-04-21T12:26:10;5.05;;;4.05;;
10416;SDS011;62605;49.432;8.680;2023-04-21T12:28:37;5.00;;;3.55;;
10416;SDS011;62605;49.432;8.680;2023-04-21T12:31:04;4.00;;;3.03;;
10416;SDS011;62605;49.432;8.680;2023-04-21T12:33:33;3.97;;;3.40;;
10416;SDS011;62605;49.432;8.680;2023-04-21T12:36:00;4.30;;;3.28;;
10416;SDS011;62605;49.432;8.680;2023-04-21T12:38:27;5.78;;;3.92;;
10416;SDS011;62605;49.432;8.680;2023-04-21T12:40:56;7.22;;;4.10;;
10416;SDS011;62605;49.432;8.680;2023-04-21T12:43:23;5.65;;;4.10;;
10416;SDS011;62605;49.432;8.680;2023-04-21T12:45:50;6.07;;;3.97;;
10416;SDS011;62605;49.432;8.680;2023-04-21T12:48:18;6.05;;;4.68;;
10416;SDS011;62605;49.432;8.680;2023-04-21T12:50:44;5.88;;;4.03;;
10416;SDS011;62605;49.432;8.680;2023-04-21T12:53:12;4.45;;;3.83;;
10416;SDS011;62605;49.432;8.680;2023-04-21T12:55:39;5.60;;;4.15;;
10416;SDS011;62605;49.432;8.680;2023-04-21T12:58:08;5.63;;;3.70;;
10416;SDS011;62605;49.432;8.680;2023-04-21T13:00:36;4.57;;;4.00;;
10416;SDS011;62605;49.432;8.680;2023-04-21T13:03:04;5.90;;;4.40;;
10416;SDS011;62605;49.432;8.680;2023-04-21T13:05:31;5.78;;;4.82;;
10416;SDS011;62605;49.432;8.680;2023-04-21T13:07:58;5.10;;;4.60;;
10416;SDS011;62605;49.432;8.680;2023-04-21T13:10:25;4.65;;;4.07;;
10416;SDS011;62605;49.432;8.680;2023-04-21T13:12:52;4.78;;;3.88;;
10416;SDS011;62605;49.432;8.680;2023-04-21T13:15:20;5.35;;;4.63;;
10416;SDS011;62605;49.432;8.680;2023-04-21T13:17:47;6.88;;;5.05;;
10416;SDS011;62605;49.432;8.680;2023-04-21T13:20:14;6.28;;;4.35;;
10416;SDS011;62605;49.432;8.680;2023-04-21T13:22:43;6.40;;;4.43;;
10416;SDS011;62605;49.432;8.680;2023-04-21T13:25:10;7.07;;;4.25;;
10416;SDS011;62605;49.432;8.680;2023-04-21T13:27:37;5.93;;;4.75;;
10416;SDS011;62605;49.432;8.680;2023-04-21T13:30:05;8.05;;;4.50;;
10416;SDS011;62605;49.432;8.680;2023-04-21T13:32:35;6.22;;;4.57;;
10416;SDS011;62605;49.432;8.680;2023-04-21T13:35:03;6.40;;;4.70;;
10416;SDS011;62605;49.432;8.680;2023-04-21T13:37:32;6.50;;;4.70;;
10416;SDS011;62605;49.432;8.680;2023-04-21T13:39:59;4.72;;;4.30;;
10416;SDS011;62605;49.432;8.680;2023-04-21T13:42:26;6.15;;;4.07;;
10416;SDS011;62605;49.432;8.680;2023-04-21T13:44:54;5.30;;;4.47;;
10416;SDS011;62605;49.432;8.680;2023-04-21T13:47:20;6.28;;;4.47;;
10416;SDS011;62605;49.432;8.680;2023-04-21T13:49:50;4.50;;;3.70;;
10416;SDS011;62605;49.432;8.680;2023-04-21T13:52:17;5.10;;;3.97;;
10416;SDS011;62605;49.432;8.680;2023-04-21T13:54:44;5.63;;;3.90;;
10416;SDS011;62605;49.432;8.680;2023-04-21T13:57:11;4.72;;;4.18;;
10416;SDS011;62605;49.432;8.680;2023-04-21T13:59:38;5.30;;;4.13;;
10416;SDS011;62605;49.432;8.680;2023-04-21T14:02:05;5.60;;;4.20;;
10416;SDS011;62605;49.432;8.680;2023-04-21T14:04:33;5.60;;;4.00;;
10416;SDS011;62605;49.432;8.680;2023-04-21T14:07:02;4.15;;;3.75;;
10416;SDS011;62605;49.432;8.680;2023-04-21T14:09:28;4.90;;;3.75;;
10416;SDS011;62605;49.432;8.680;2023-04-21T14:11:56;5.55;;;4.18;;
10416;SDS011;62605;49.432;8.680;2023-04-21T14:14:22;5.10;;;3.60;;
10416;SDS011;62605;49.432;8.680;2023-04-21T14:16:49;6.57;;;4.30;;
10416;SDS011;62605;49.432;8.680;2023-04-21T14:19:17;5.00;;;3.97;;
10416;SDS011;62605;49.432;8.680;2023-04-21T14:21:44;6.70;;;4.80;;
10416;SDS011;62605;49.432;8.680;2023-04-21T14:24:13;5.93;;;4.40;;
10416;SDS011;62605;49.432;8.680;2023-04-21T14:26:40;5.72;;;4.20;;
10416;SDS011;62605;49.432;8.680;2023-04-21T14:29:07;4.63;;;4.00;;
10416;SDS011;62605;49.432;8.680;2023-04-21T14:31:34;5.38;;;4.00;;
10416;SDS011;62605;49.432;8.680;2023-04-21T14:34:01;6.03;;;4.35;;
10416;SDS011;62605;49.432;8.680;2023-04-21T14:36:28;7.95;;;4.28;;
10416;SDS011;62605;49.432;8.680;2023-04-21T14:38:55;5.35;;;4.00;;
10416;SDS011;62605;49.432;8.680;2023-04-21T14:41:23;5.38;;;4.28;;
10416;SDS011;62605;49.432;8.680;2023-04-21T14:43:50;3.85;;;3.17;;
10416;SDS011;62605;49.432;8.680;2023-04-21T14:46:20;4.93;;;3.80;;
10416;SDS011;62605;49.432;8.680;2023-04-21T14:48:47;4.80;;;3.92;;
10416;SDS011;62605;49.432;8.680;2023-04-21T14:51:14;4.82;;;3.63;;
10416;SDS011;62605;49.432;8.680;2023-04-21T14:53:41;5.50;;;4.07;;
10416;SDS011;62605;49.432;8.680;2023-04-21T14:56:08;6.05;;;4.00;;
10416;SDS011;62605;49.432;8.680;2023-04-21T14:58:36;5.47;;;4.28;;
10416;SDS011;62605;49.432;8.680;2023-04-21T15:01:03;4.72;;;3.92;;
10416;SDS011;62605;49.432;8.680;2023-04-21T15:03:31;6.18;;;3.92;;
10416;SDS011;62605;49.432;8.680;2023-04-21T15:05:58;5.47;;;3.90;;
10416;SDS011;62605;49.432;8.680;2023-04-21T15:08:25;4.80;;;4.05;;
10416;SDS011;62605;49.432;8.680;2023-04-21T15:10:52;4.07;;;3.67;;
10416;SDS011;62605;49.432;8.680;2023-04-21T15:13:19;4.75;;;3.55;;
10416;SDS011;62605;49.432;8.680;2023-04-21T15:15:48;4.35;;;3.72;;
10416;SDS011;62605;49.432;8.680;2023-04-21T15:18:15;4.45;;;3.60;;
10416;SDS011;62605;49.432;8.680;2023-04-21T15:20:42;5.13;;;3.63;;
10416;SDS011;62605;49.432;8.680;2023-04-21T15:23:10;6.18;;;4.75;;
10416;SDS011;62605;49.432;8.680;2023-04-21T15:25:37;5.53;;;3.70;;
10416;SDS011;62605;49.432;8.680;2023-04-21T15:28:04;4.75;;;3.70;;
10416;SDS011;62605;49.432;8.680;2023-04-21T15:30:32;5.18;;;3.85;;
10416;SDS011;62605;49.432;8.680;2023-04-21T15:33:00;3.90;;;3.35;;
10416;SDS011;62605;49.432;8.680;2023-04-21T15:35:27;4.03;;;3.28;;
10416;SDS011;62605;49.432;8.680;2023-04-21T15:37:55;4.95;;;3.80;;
10416;SDS011;62605;49.432;8.680;2023-04-21T15:40:22;5.25;;;4.25;;
10416;SDS011;62605;49.432;8.680;2023-04-21T15:42:49;4.70;;;4.18;;
10416;SDS011;62605;49.432;8.680;2023-04-21T15:45:16;6.05;;;3.83;;
10416;SDS011;62605;49.432;8.680;2023-04-21T15:47:43;4.70;;;3.50;;
10416;SDS011;62605;49.432;8.680;2023-04-21T15:50:11;4.28;;;3.47;;
10416;SDS011;62605;49.432;8.680;2023-04-21T15:52:38;4.50;;;3.67;;
10416;SDS011;62605;49.432;8.680;2023-04-21T15:55:07;4.20;;;3.28;;